Time;durP1;ratioP1;P1;durP2;ratioP2;P2;SDS_P1;SDS_P2;PMS_P1;PMS_P2;Temp;Humidity;BMP_temperature;BMP_pressure;BME280_temperature;BME280_humidity;BME280_pressure;Samples;Min_cycle;Max_cycle;Signal;HPM_P1;HPM_P2
2021/08/13 00:00:27;;;;;;;7.97;6.73;;;17.20;99.90;;;;;;4424054;32;20179;-63
2021/08/13 00:02:54;;;;;;;7.90;6.47;;;17.20;99.90;;;;;;4422176;32;20140;-64
2021/08/13 00:05:21;;;;;;;9.07;6.60;;;17.10;99.90;;;;;;4418619;32;20230;-64
2021/08/13 00:07:49;;;;;;;7.83;6.80;;;17.10;99.90;;;;;;4412645;32;20189;-65
2021/08/13 00:10:25;;;;;;;7.17;6.47;;;17.00;99.90;;;;;;4403236;32;20180;-63
2021/08/13 00:12:52;;;;;;;9.17;6.17;;;17.00;99.90;;;;;;4406594;32;20172;-62
2021/08/13 00:15:22;;;;;;;8.40;6.97;;;16.90;99.90;;;;;;4409994;32;21142;-64
2021/08/13 00:17:49;;;;;;;9.47;7.17;;;16.90;99.90;;;;;;4402791;32;20227;-62
2021/08/13 00:20:20;;;;;;;7.80;6.60;;;16.90;99.90;;;;;;4403353;32;20166;-62
2021/08/13 00:23:01;;;;;;;8.93;7.00;;;16.90;99.90;;;;;;4397185;32;20219;-62
2021/08/13 00:25:31;;;;;;;8.03;6.57;;;16.80;99.90;;;;;;4398331;32;20313;-62
2021/08/13 00:28:07;;;;;;;7.73;6.40;;;16.80;99.90;;;;;;4407931;32;20600;-63
2021/08/13 00:30:33;;;;;;;10.03;6.77;;;16.80;99.90;;;;;;4414480;32;20166;-62
2021/08/13 00:33:00;;;;;;;7.20;6.50;;;16.80;99.90;;;;;;4406862;32;20191;-62
2021/08/13 00:35:30;;;;;;;9.73;7.03;;;16.80;99.90;;;;;;4406636;32;20154;-63
2021/08/13 00:37:58;;;;;;;7.87;7.03;;;16.70;99.90;;;;;;4406131;32;20185;-62
2021/08/13 00:40:25;;;;;;;7.63;6.80;;;16.70;99.90;;;;;;4406526;32;20140;-62
2021/08/13 00:42:52;;;;;;;9.97;7.00;;;16.70;99.90;;;;;;4406574;32;20219;-63
2021/08/13 00:45:18;;;;;;;9.10;7.20;;;16.60;99.90;;;;;;4406522;32;20154;-62
2021/08/13 00:47:46;;;;;;;11.00;8.20;;;16.60;99.90;;;;;;4406306;32;20516;-62
2021/08/13 00:50:13;;;;;;;9.63;7.33;;;16.60;99.90;;;;;;4406454;32;20136;-63
2021/08/13 00:52:40;;;;;;;8.10;7.30;;;16.50;99.90;;;;;;4406187;32;20156;-65
2021/08/13 00:55:09;;;;;;;9.07;7.33;;;16.50;99.90;;;;;;4406336;32;20155;-63
2021/08/13 00:57:36;;;;;;;8.77;6.83;;;16.50;99.90;;;;;;4407229;32;20222;-62
2021/08/13 01:00:04;;;;;;;13.13;7.50;;;16.50;99.90;;;;;;4405640;32;20219;-61
2021/08/13 01:02:31;;;;;;;9.57;7.60;;;16.40;99.90;;;;;;4406225;32;20163;-64
2021/08/13 01:04:58;;;;;;;11.33;8.53;;;16.50;99.90;;;;;;4405966;32;20183;-62
2021/08/13 01:07:25;;;;;;;10.03;8.30;;;16.50;99.90;;;;;;4406024;32;20144;-62
2021/08/13 01:09:51;;;;;;;9.63;8.10;;;16.40;99.90;;;;;;4406514;32;20140;-62
2021/08/13 01:12:29;;;;;;;9.67;8.67;;;16.40;99.90;;;;;;4406664;32;20203;-63
2021/08/13 01:15:05;;;;;;;11.00;8.13;;;16.40;99.90;;;;;;4406425;32;20214;-65
2021/08/13 01:17:38;;;;;;;8.17;7.37;;;16.40;99.90;;;;;;4406119;32;20173;-62
2021/08/13 01:20:10;;;;;;;10.10;8.60;;;16.30;99.90;;;;;;4407284;32;20162;-63
2021/08/13 01:22:45;;;;;;;10.30;8.27;;;16.40;99.90;;;;;;4407752;32;20144;-65
2021/08/13 01:25:19;;;;;;;10.50;9.17;;;16.30;99.90;;;;;;4406509;32;20147;-61
2021/08/13 01:27:51;;;;;;;11.43;8.70;;;16.30;99.90;;;;;;4405775;32;20144;-62
2021/08/13 01:30:20;;;;;;;11.03;8.20;;;16.30;99.90;;;;;;4407724;32;20154;-62
2021/08/13 01:32:53;;;;;;;11.90;8.73;;;16.30;99.90;;;;;;4405968;32;20164;-61
2021/08/13 01:35:24;;;;;;;10.73;8.87;;;16.30;99.90;;;;;;4405833;32;20278;-62
2021/08/13 01:37:54;;;;;;;10.13;8.90;;;16.30;99.90;;;;;;4405759;32;20207;-65
2021/08/13 01:40:22;;;;;;;10.37;8.90;;;16.30;99.90;;;;;;4406295;32;20158;-62
2021/08/13 01:42:51;;;;;;;10.87;8.57;;;16.30;99.90;;;;;;4406218;32;20627;-61
2021/08/13 01:45:21;;;;;;;11.40;9.50;;;16.30;99.90;;;;;;4406906;32;20242;-61
2021/08/13 01:47:52;;;;;;;14.00;10.10;;;16.30;99.90;;;;;;4405426;32;20223;-65
2021/08/13 01:50:20;;;;;;;16.53;10.67;;;16.30;99.90;;;;;;4405840;32;20498;-62
2021/08/13 01:52:48;;;;;;;12.20;10.03;;;16.30;99.90;;;;;;4406532;32;20160;-61
2021/08/13 01:55:16;;;;;;;13.20;11.50;;;16.30;99.90;;;;;;4405609;32;20166;-62
2021/08/13 01:57:44;;;;;;;13.30;10.80;;;16.30;99.90;;;;;;4405561;32;20206;-62
2021/08/13 02:00:15;;;;;;;13.33;10.63;;;16.30;99.90;;;;;;4405714;32;20456;-62
2021/08/13 02:02:45;;;;;;;13.27;10.60;;;16.30;99.90;;;;;;4406713;32;20174;-62
2021/08/13 02:05:17;;;;;;;13.83;11.47;;;16.30;99.90;;;;;;4406034;32;20535;-62
2021/08/13 02:07:44;;;;;;;14.67;11.43;;;16.20;99.90;;;;;;4405647;32;20144;-62
2021/08/13 02:10:12;;;;;;;16.30;11.77;;;16.30;99.90;;;;;;4406532;32;20223;-62
2021/08/13 02:12:39;;;;;;;14.57;11.63;;;16.20;99.90;;;;;;4406174;32;20171;-63
2021/08/13 02:15:09;;;;;;;14.07;11.10;;;16.20;99.90;;;;;;4410378;32;20274;-63
2021/08/13 02:17:42;;;;;;;14.30;11.30;;;16.20;99.90;;;;;;4409339;32;20559;-62
2021/08/13 02:20:11;;;;;;;14.27;11.70;;;16.30;99.90;;;;;;4408717;32;20262;-63
2021/08/13 02:22:40;;;;;;;14.60;11.50;;;16.20;99.90;;;;;;4408600;32;20174;-62
2021/08/13 02:25:08;;;;;;;15.50;12.67;;;16.10;99.90;;;;;;4408528;32;20160;-64
2021/08/13 02:27:35;;;;;;;17.20;12.47;;;16.10;99.90;;;;;;4408439;32;20151;-62
2021/08/13 02:30:01;;;;;;;19.00;12.03;;;16.10;99.90;;;;;;4408459;32;20224;-62
2021/08/13 02:32:29;;;;;;;16.90;11.87;;;16.00;99.90;;;;;;4408655;32;20227;-63
2021/08/13 02:34:56;;;;;;;13.13;10.63;;;16.00;99.90;;;;;;4408352;32;20160;-61
2021/08/13 02:37:32;;;;;;;16.17;12.53;;;15.90;99.90;;;;;;4408262;32;20174;-62
2021/08/13 02:40:04;;;;;;;17.73;13.23;;;16.00;99.90;;;;;;4408791;32;20147;-62
2021/08/13 02:42:36;;;;;;;14.93;11.87;;;16.00;99.90;;;;;;4408046;32;20136;-61
2021/08/13 02:45:04;;;;;;;21.60;14.03;;;16.00;99.90;;;;;;4408247;32;20159;-61
2021/08/13 02:47:31;;;;;;;15.53;12.37;;;16.00;99.90;;;;;;4408205;32;20211;-62
2021/08/13 02:50:03;;;;;;;17.47;12.90;;;16.00;99.90;;;;;;4409551;32;20586;-62
2021/08/13 02:52:31;;;;;;;17.27;12.97;;;16.00;99.90;;;;;;4407860;32;20176;-64
2021/08/13 02:55:04;;;;;;;16.03;12.83;;;15.90;99.90;;;;;;4409403;32;20135;-63
2021/08/13 02:57:33;;;;;;;18.23;13.73;;;15.90;99.90;;;;;;4407998;32;20159;-62
2021/08/13 03:00:02;;;;;;;17.63;13.23;;;15.90;99.90;;;;;;4407747;32;20194;-65
2021/08/13 03:02:31;;;;;;;18.57;13.00;;;15.90;99.90;;;;;;4409559;32;20140;-61
2021/08/13 03:04:59;;;;;;;17.23;13.10;;;15.90;99.90;;;;;;4407806;32;20513;-65
2021/08/13 03:07:27;;;;;;;14.93;12.00;;;15.90;99.90;;;;;;4409665;32;20135;-62
2021/08/13 03:09:55;;;;;;;15.80;12.80;;;15.80;99.90;;;;;;4407745;32;20148;-63
2021/08/13 03:12:24;;;;;;;20.40;14.13;;;15.90;99.90;;;;;;4408265;32;20132;-62
2021/08/13 03:14:52;;;;;;;16.10;12.97;;;15.80;99.90;;;;;;4407535;32;20210;-62
2021/08/13 03:17:19;;;;;;;18.37;13.53;;;15.80;99.90;;;;;;4408463;32;20166;-62
2021/08/13 03:19:46;;;;;;;17.73;13.20;;;15.80;99.90;;;;;;4407624;32;20190;-63
2021/08/13 03:22:14;;;;;;;18.23;13.13;;;15.80;99.90;;;;;;4407681;32;20175;-62
2021/08/13 03:24:41;;;;;;;17.60;12.93;;;15.80;99.90;;;;;;4407623;32;20139;-64
2021/08/13 03:27:07;;;;;;;19.80;14.13;;;15.70;99.90;;;;;;4317920;32;2948555;-63
2021/08/13 03:29:36;;;;;;;17.53;13.53;;;15.70;99.90;;;;;;4407571;32;20613;-62
2021/08/13 03:32:05;;;;;;;17.03;13.67;;;15.70;99.90;;;;;;4407455;32;20148;-63
2021/08/13 03:34:32;;;;;;;18.00;14.07;;;15.70;99.90;;;;;;4407558;32;20163;-62
2021/08/13 03:37:00;;;;;;;17.10;13.00;;;15.60;99.90;;;;;;4408727;32;20595;-62
2021/08/13 03:39:28;;;;;;;16.17;13.03;;;15.60;99.90;;;;;;4409095;32;20202;-62
2021/08/13 03:41:56;;;;;;;19.03;13.83;;;15.60;99.90;;;;;;4407364;32;20204;-62
2021/08/13 03:44:23;;;;;;;17.27;12.80;;;15.60;99.90;;;;;;4409181;32;20201;-62
2021/08/13 03:46:51;;;;;;;17.80;13.80;;;15.60;99.90;;;;;;4407456;32;20151;-62
2021/08/13 03:49:17;;;;;;;18.10;14.17;;;15.60;99.90;;;;;;4407145;32;20148;-62
2021/08/13 03:51:44;;;;;;;24.97;16.20;;;15.50;99.90;;;;;;4407288;32;20186;-62
2021/08/13 03:54:11;;;;;;;20.70;15.17;;;15.60;99.90;;;;;;4407884;32;20173;-64
2021/08/13 03:56:38;;;;;;;21.13;15.77;;;15.60;99.90;;;;;;4407638;32;20159;-62
2021/08/13 03:59:05;;;;;;;23.43;16.67;;;15.50;99.90;;;;;;4407237;32;20167;-63
2021/08/13 04:01:32;;;;;;;22.97;16.87;;;15.60;99.90;;;;;;4407935;32;20168;-62
2021/08/13 04:04:00;;;;;;;24.03;16.93;;;15.60;99.90;;;;;;4406982;32;20186;-62
2021/08/13 04:06:29;;;;;;;23.37;16.20;;;15.60;99.90;;;;;;4407038;32;20147;-61
2021/08/13 04:08:55;;;;;;;22.17;15.10;;;15.60;99.90;;;;;;4408292;32;20203;-62
2021/08/13 04:11:22;;;;;;;22.63;15.40;;;15.60;99.90;;;;;;4408047;32;20580;-61
2021/08/13 04:13:49;;;;;;;21.90;15.93;;;15.60;99.90;;;;;;4407446;32;20619;-64
2021/08/13 04:16:16;;;;;;;20.83;15.63;;;15.60;99.90;;;;;;4406885;32;20164;-62
2021/08/13 04:18:43;;;;;;;27.00;16.10;;;15.60;99.90;;;;;;4406837;32;20182;-62
2021/08/13 04:21:11;;;;;;;25.17;16.70;;;15.60;99.90;;;;;;4407754;32;20160;-62
2021/08/13 04:23:38;;;;;;;24.27;15.93;;;15.60;99.90;;;;;;4408313;32;20489;-62
2021/08/13 04:26:05;;;;;;;23.93;16.77;;;15.70;99.90;;;;;;4406738;32;20185;-62
2021/08/13 04:28:31;;;;;;;22.23;15.63;;;15.70;99.90;;;;;;4407765;32;20572;-62
2021/08/13 04:30:58;;;;;;;22.83;15.20;;;15.70;99.90;;;;;;4408411;32;20179;-62
2021/08/13 04:33:25;;;;;;;23.47;16.10;;;15.70;99.90;;;;;;4407549;32;20168;-62
2021/08/13 04:35:52;;;;;;;26.43;17.47;;;15.70;99.90;;;;;;4406630;32;20147;-62
2021/08/13 04:38:20;;;;;;;27.27;16.07;;;15.70;99.90;;;;;;4406548;32;20151;-62
2021/08/13 04:40:47;;;;;;;22.03;16.30;;;15.70;99.90;;;;;;4407373;32;20156;-62
2021/08/13 04:43:14;;;;;;;24.17;16.80;;;15.70;99.90;;;;;;4406471;32;20170;-62
2021/08/13 04:45:41;;;;;;;25.10;17.00;;;15.80;99.90;;;;;;4406391;32;20170;-62
2021/08/13 04:48:08;;;;;;;23.03;16.00;;;15.80;99.90;;;;;;4406466;32;20156;-64
2021/08/13 04:50:34;;;;;;;22.03;14.97;;;15.90;99.90;;;;;;4406178;32;20170;-62
2021/08/13 04:53:01;;;;;;;22.77;16.50;;;16.00;99.90;;;;;;4406767;32;20243;-62
2021/08/13 04:55:30;;;;;;;23.07;16.67;;;16.10;99.90;;;;;;4406335;32;20170;-64
2021/08/13 04:57:57;;;;;;;22.50;16.67;;;16.20;99.90;;;;;;4407288;32;20171;-63
2021/08/13 05:00:24;;;;;;;22.77;15.60;;;16.20;99.90;;;;;;4406283;32;20167;-61
2021/08/13 05:02:51;;;;;;;24.07;16.23;;;16.30;99.90;;;;;;4406339;32;20148;-62
2021/08/13 05:05:19;;;;;;;26.40;17.10;;;16.30;99.90;;;;;;4406304;32;20151;-62
2021/08/13 05:07:45;;;;;;;22.97;16.27;;;16.40;99.90;;;;;;4406043;32;20211;-64
2021/08/13 05:10:14;;;;;;;25.00;18.10;;;16.50;99.90;;;;;;4406208;32;20576;-64
2021/08/13 05:12:44;;;;;;;23.30;15.67;;;16.90;99.90;;;;;;4406113;32;20222;-63
2021/08/13 05:15:12;;;;;;;22.10;15.20;;;17.30;99.90;;;;;;4405648;32;20171;-64
2021/08/13 05:17:39;;;;;;;23.30;16.23;;;17.50;99.90;;;;;;4406355;32;20635;-62
2021/08/13 05:20:07;;;;;;;23.27;16.50;;;17.90;99.90;;;;;;4406528;32;20205;-62
2021/08/13 05:22:35;;;;;;;22.00;16.10;;;17.90;99.90;;;;;;4405980;32;20163;-61
2021/08/13 05:25:02;;;;;;;22.73;14.93;;;17.90;99.90;;;;;;4405935;32;20239;-60
2021/08/13 05:27:29;;;;;;;21.47;15.07;;;17.90;99.90;;;;;;4407492;32;20148;-62
2021/08/13 05:29:57;;;;;;;24.53;17.10;;;17.90;99.90;;;;;;4405310;32;20209;-62
2021/08/13 05:32:24;;;;;;;20.43;14.40;;;18.00;99.90;;;;;;4406773;32;20571;-62
2021/08/13 05:34:51;;;;;;;23.00;14.53;;;18.00;99.90;;;;;;4406300;32;20183;-61
2021/08/13 05:37:18;;;;;;;20.27;14.00;;;18.10;99.90;;;;;;4405729;32;20167;-63
2021/08/13 05:39:46;;;;;;;18.47;13.53;;;18.20;99.90;;;;;;4405719;32;20156;-63
2021/08/13 05:42:12;;;;;;;19.37;13.70;;;18.30;99.90;;;;;;4406856;32;20485;-62
2021/08/13 05:44:40;;;;;;;17.23;12.87;;;18.40;99.90;;;;;;4407358;32;20170;-62
2021/08/13 05:47:08;;;;;;;18.30;12.23;;;18.40;99.90;;;;;;4405585;32;20200;-62
2021/08/13 05:49:35;;;;;;;20.70;12.53;;;18.40;99.90;;;;;;4406254;32;20171;-63
2021/08/13 05:52:02;;;;;;;19.20;12.60;;;18.40;99.90;;;;;;4405880;32;20182;-62
2021/08/13 05:54:30;;;;;;;15.43;11.73;;;18.40;99.90;;;;;;4407002;32;20193;-62
2021/08/13 05:56:59;;;;;;;12.87;10.80;;;18.40;99.90;;;;;;4407139;32;20200;-62
2021/08/13 05:59:26;;;;;;;17.27;11.83;;;18.50;99.90;;;;;;4405469;32;20625;-62
2021/08/13 06:01:53;;;;;;;16.20;12.47;;;18.60;99.90;;;;;;4406577;32;20586;-63
2021/08/13 06:04:21;;;;;;;17.47;11.93;;;18.50;99.90;;;;;;4406518;32;20148;-64
2021/08/13 06:06:48;;;;;;;15.80;13.00;;;18.60;99.90;;;;;;4405459;32;20565;-62
2021/08/13 06:09:15;;;;;;;18.00;12.33;;;18.60;99.90;;;;;;4406641;32;20434;-63
2021/08/13 06:11:42;;;;;;;18.37;12.40;;;18.70;99.90;;;;;;4405570;32;20229;-62
2021/08/13 06:14:09;;;;;;;14.57;10.57;;;18.60;99.90;;;;;;4405344;32;20176;-63
2021/08/13 06:16:36;;;;;;;16.83;11.43;;;18.70;99.90;;;;;;4405240;32;20151;-61
2021/08/13 06:19:03;;;;;;;17.57;11.77;;;18.80;99.90;;;;;;4406083;32;20580;-64
2021/08/13 06:21:31;;;;;;;18.47;12.07;;;18.80;99.90;;;;;;4405899;32;20170;-65
2021/08/13 06:23:58;;;;;;;14.67;10.73;;;18.90;99.90;;;;;;4414129;32;20155;-64
2021/08/13 06:26:28;;;;;;;17.70;11.80;;;19.00;99.90;;;;;;4405071;32;20234;-64
2021/08/13 06:28:55;;;;;;;21.00;11.40;;;19.00;99.90;;;;;;4407040;32;20199;-62
2021/08/13 06:31:22;;;;;;;17.03;11.90;;;19.10;99.90;;;;;;4408702;32;20242;-64
2021/08/13 06:33:49;;;;;;;13.57;10.13;;;19.10;99.90;;;;;;4405494;32;20215;-61
2021/08/13 06:36:16;;;;;;;16.63;10.97;;;19.20;99.90;;;;;;4408308;32;20193;-63
2021/08/13 06:38:45;;;;;;;16.37;10.90;;;19.20;99.90;;;;;;4414799;32;20225;-62
2021/08/13 06:41:11;;;;;;;16.77;11.13;;;19.30;99.90;;;;;;4405288;32;20664;-61
2021/08/13 06:43:38;;;;;;;15.63;10.33;;;19.40;99.90;;;;;;4405137;32;20151;-63
2021/08/13 06:46:05;;;;;;;13.97;9.60;;;19.50;99.90;;;;;;4405427;32;20568;-63
2021/08/13 06:48:32;;;;;;;16.37;10.73;;;19.60;99.90;;;;;;4405234;32;20180;-62
2021/08/13 06:50:59;;;;;;;12.67;9.40;;;19.80;99.90;;;;;;4406011;32;20159;-61
2021/08/13 06:53:25;;;;;;;13.53;9.97;;;19.70;99.90;;;;;;4406145;32;20207;-62
2021/08/13 06:55:54;;;;;;;17.07;10.70;;;19.80;99.90;;;;;;4405141;32;20918;-62
2021/08/13 06:58:20;;;;;;;14.20;9.93;;;19.80;99.90;;;;;;4405199;32;20152;-63
2021/08/13 07:00:47;;;;;;;15.60;10.97;;;20.00;99.90;;;;;;4408026;32;20173;-62
2021/08/13 07:03:14;;;;;;;15.80;11.17;;;20.20;99.90;;;;;;4408975;32;20245;-63
2021/08/13 07:05:41;;;;;;;12.07;8.97;;;20.40;99.90;;;;;;4408605;32;20598;-62
2021/08/13 07:08:09;;;;;;;17.23;9.43;;;20.40;99.90;;;;;;4409683;32;20474;-63
2021/08/13 07:10:36;;;;;;;15.80;9.70;;;20.60;99.90;;;;;;4407742;32;20147;-62
2021/08/13 07:13:05;;;;;;;12.77;8.67;;;20.60;99.90;;;;;;4408008;32;20623;-62
2021/08/13 07:15:32;;;;;;;13.20;9.07;;;20.70;99.90;;;;;;4407745;32;20171;-63
2021/08/13 07:17:59;;;;;;;12.07;7.87;;;20.70;99.90;;;;;;4408696;32;20167;-63
2021/08/13 07:20:26;;;;;;;14.43;8.97;;;20.90;99.90;;;;;;4407580;32;20163;-63
2021/08/13 07:22:53;;;;;;;13.43;8.07;;;21.10;99.90;;;;;;4407608;32;20175;-64
2021/08/13 07:25:20;;;;;;;13.30;7.60;;;21.10;99.90;;;;;;4407781;32;20179;-62
2021/08/13 07:27:48;;;;;;;9.97;7.37;;;21.00;99.90;;;;;;4407591;32;20168;-65
2021/08/13 07:30:17;;;;;;;11.70;7.57;;;21.20;99.90;;;;;;4407343;32;20163;-63
2021/08/13 07:32:45;;;;;;;13.57;7.70;;;21.40;99.90;;;;;;4408253;32;20473;-63
2021/08/13 07:35:12;;;;;;;9.00;6.93;;;21.50;99.90;;;;;;4407417;32;20252;-62
2021/08/13 07:37:40;;;;;;;14.97;8.67;;;21.50;99.90;;;;;;4407572;32;20179;-63
2021/08/13 07:40:08;;;;;;;14.43;8.67;;;21.50;99.90;;;;;;4409212;32;20600;-64
2021/08/13 07:42:36;;;;;;;12.83;8.43;;;21.70;99.90;;;;;;4408368;32;20467;-63
2021/08/13 07:45:04;;;;;;;10.73;7.60;;;22.20;99.90;;;;;;4407267;32;20155;-65
2021/08/13 07:47:32;;;;;;;7.33;5.97;;;23.00;99.90;;;;;;4409231;32;20607;-65
2021/08/13 07:49:59;;;;;;;11.50;6.87;;;25.10;99.90;;;;;;4409052;32;20152;-62
2021/08/13 07:52:26;;;;;;;6.85;5.50;;;27.30;99.90;;;;;;4407211;32;20148;-64
2021/08/13 07:54:54;;;;;;;8.82;5.40;;;29.20;97.20;;;;;;4407663;32;20151;-62
2021/08/13 07:57:21;;;;;;;11.35;6.35;;;30.90;94.10;;;;;;4407597;32;20586;-63
2021/08/13 07:59:49;;;;;;;10.93;6.25;;;30.80;92.20;;;;;;4407931;32;20208;-62
2021/08/13 08:02:16;;;;;;;8.68;5.90;;;29.30;92.90;;;;;;4407776;32;20192;-62
2021/08/13 08:04:45;;;;;;;7.82;6.37;;;28.00;95.00;;;;;;4407066;32;20174;-63
2021/08/13 08:07:12;;;;;;;12.13;6.50;;;26.80;96.30;;;;;;4407694;32;20145;-63
2021/08/13 08:09:39;;;;;;;9.30;6.53;;;27.20;97.60;;;;;;4407848;32;20171;-63
2021/08/13 08:12:06;;;;;;;5.90;5.25;;;28.60;94.60;;;;;;4407155;32;20151;-62
2021/08/13 08:14:32;;;;;;;9.95;7.07;;;28.30;94.20;;;;;;4408682;32;20218;-63
2021/08/13 08:16:59;;;;;;;11.07;6.15;;;27.30;95.50;;;;;;4406792;32;20148;-62
2021/08/13 08:19:26;;;;;;;8.25;6.07;;;26.90;96.70;;;;;;4406775;32;20160;-62
2021/08/13 08:21:55;;;;;;;10.63;5.93;;;27.30;96.00;;;;;;4406559;32;20207;-62
2021/08/13 08:24:22;;;;;;;9.38;5.70;;;27.90;95.70;;;;;;4406536;32;20174;-65
2021/08/13 08:26:49;;;;;;;7.82;6.07;;;29.20;93.40;;;;;;4406561;32;20606;-62
2021/08/13 08:29:16;;;;;;;6.55;5.53;;;29.60;94.90;;;;;;4406098;32;20197;-65
2021/08/13 08:31:43;;;;;;;6.20;4.78;;;31.10;90.30;;;;;;4406967;32;20221;-64
2021/08/13 08:34:10;;;;;;;7.72;4.93;;;29.70;91.30;;;;;;4406372;32;20144;-63
2021/08/13 08:36:37;;;;;;;9.60;5.87;;;28.90;92.50;;;;;;4406598;32;20548;-62
2021/08/13 08:39:05;;;;;;;8.23;5.78;;;28.10;93.20;;;;;;4406614;32;20164;-62
2021/08/13 08:41:32;;;;;;;8.20;5.90;;;27.80;94.30;;;;;;4406593;32;20189;-64
2021/08/13 08:43:59;;;;;;;8.38;5.22;;;28.50;94.10;;;;;;4406650;32;20171;-63
2021/08/13 08:46:27;;;;;;;8.77;5.20;;;28.10;92.90;;;;;;4406518;32;20171;-62
2021/08/13 08:48:55;;;;;;;8.52;5.28;;;26.60;94.00;;;;;;4407977;32;20151;-62
2021/08/13 08:51:25;;;;;;;7.90;4.68;;;28.60;92.60;;;;;;4406766;32;20252;-64
2021/08/13 08:53:54;;;;;;;8.27;3.72;;;29.00;91.40;;;;;;4406121;32;20212;-62
2021/08/13 08:56:24;;;;;;;7.32;3.20;;;31.30;85.70;;;;;;4407367;32;20155;-65
2021/08/13 08:58:52;;;;;;;6.07;3.70;;;32.60;81.70;;;;;;4406254;32;20148;-65
2021/08/13 09:01:18;;;;;;;4.37;3.00;;;36.20;72.90;;;;;;4405790;32;20530;-63
2021/08/13 09:03:46;;;;;;;4.07;2.78;;;40.10;60.90;;;;;;4407691;32;20163;-62
2021/08/13 09:06:14;;;;;;;8.38;3.83;;;42.80;51.60;;;;;;4406240;32;20191;-64
2021/08/13 09:08:41;;;;;;;6.25;3.60;;;42.50;47.90;;;;;;4407951;32;20148;-62
2021/08/13 09:11:09;;;;;;;6.25;3.90;;;40.70;48.20;;;;;;4406201;32;20210;-61
2021/08/13 09:13:38;;;;;;;4.95;4.00;;;37.90;49.20;;;;;;4406692;32;20160;-62
2021/08/13 09:16:13;;;;;;;8.00;4.03;;;34.70;52.40;;;;;;4405779;32;20145;-63
2021/08/13 09:18:40;;;;;;;7.10;4.18;;;34.70;53.90;;;;;;4406014;32;20139;-61
2021/08/13 09:21:08;;;;;;;6.57;3.42;;;36.50;51.90;;;;;;4407439;32;20143;-63
2021/08/13 09:23:38;;;;;;;5.25;3.62;;;37.90;50.50;;;;;;4405857;32;20190;-62
2021/08/13 09:26:07;;;;;;;7.40;3.50;;;37.20;50.50;;;;;;4406640;32;20164;-62
2021/08/13 09:28:47;;;;;;;8.38;3.95;;;36.20;51.50;;;;;;4405642;32;20221;-63
2021/08/13 09:31:20;;;;;;;6.20;3.90;;;33.80;53.90;;;;;;4405764;32;20183;-64
2021/08/13 09:33:50;;;;;;;6.45;3.95;;;31.70;57.60;;;;;;4405998;32;20147;-62
2021/08/13 09:36:19;;;;;;;7.47;3.80;;;29.90;60.70;;;;;;4407279;32;20162;-63
2021/08/13 09:38:47;;;;;;;8.25;3.67;;;28.90;63.20;;;;;;4405584;32;20170;-62
2021/08/13 09:41:18;;;;;;;6.87;4.25;;;28.20;66.10;;;;;;4405800;32;20213;-63
2021/08/13 09:44:01;;;;;;;6.95;3.62;;;27.70;68.10;;;;;;4406808;32;20140;-62
2021/08/13 09:46:30;;;;;;;6.45;4.20;;;27.00;70.40;;;;;;4407201;32;20152;-64
2021/08/13 09:49:13;;;;;;;6.65;3.95;;;26.50;73.70;;;;;;4405995;32;20147;-63
2021/08/13 09:51:40;;;;;;;8.05;4.22;;;25.90;76.00;;;;;;4405677;32;20166;-64
2021/08/13 09:54:09;;;;;;;5.97;3.22;;;25.30;79.00;;;;;;4405710;32;20164;-63
2021/08/13 09:56:38;;;;;;;4.90;3.20;;;25.00;82.60;;;;;;4405945;32;20171;-63
2021/08/13 09:59:24;;;;;;;7.50;3.90;;;25.30;83.00;;;;;;4405550;32;20151;-63
2021/08/13 10:01:52;;;;;;;5.05;3.58;;;25.40;84.40;;;;;;4405609;32;20163;-64
2021/08/13 10:04:31;;;;;;;5.78;3.42;;;25.80;85.50;;;;;;4406839;32;20167;-64
2021/08/13 10:06:58;;;;;;;4.97;3.00;;;26.30;84.50;;;;;;4406157;32;20603;-64
2021/08/13 10:09:26;;;;;;;7.40;4.10;;;26.30;84.20;;;;;;4405994;32;20147;-63
2021/08/13 10:11:59;;;;;;;5.35;3.65;;;26.00;84.20;;;;;;4405868;32;20533;-63
2021/08/13 10:14:31;;;;;;;7.07;3.95;;;25.90;86.20;;;;;;4405354;32;20178;-64
2021/08/13 10:17:09;;;;;;;8.00;3.45;;;25.90;86.70;;;;;;4405505;32;20144;-63
2021/08/13 10:19:36;;;;;;;6.05;3.10;;;25.80;87.40;;;;;;4405456;32;20467;-65
2021/08/13 10:22:03;;;;;;;6.43;3.75;;;25.80;87.70;;;;;;4406541;32;20171;-63
2021/08/13 10:24:31;;;;;;;4.55;2.90;;;26.00;87.20;;;;;;4406642;32;20219;-66
2021/08/13 10:26:58;;;;;;;5.75;3.15;;;26.30;87.80;;;;;;4406217;32;20494;-65
2021/08/13 10:29:27;;;;;;;6.95;2.95;;;26.60;86.70;;;;;;4405159;32;20171;-65
2021/08/13 10:31:56;;;;;;;6.87;3.47;;;27.10;84.80;;;;;;4406169;32;20607;-64
2021/08/13 10:34:23;;;;;;;7.15;2.90;;;27.00;82.70;;;;;;4408612;32;20514;-64
2021/08/13 10:36:50;;;;;;;4.65;2.85;;;27.00;84.20;;;;;;4409504;32;20511;-64
2021/08/13 10:39:18;;;;;;;6.25;2.90;;;27.20;84.50;;;;;;4408143;32;20167;-64
2021/08/13 10:41:49;;;;;;;6.03;2.58;;;27.50;84.60;;;;;;4409205;32;20602;-64
2021/08/13 10:44:19;;;;;;;5.87;2.50;;;27.50;83.70;;;;;;4409414;32;20148;-64
2021/08/13 10:46:47;;;;;;;4.95;2.55;;;27.50;83.00;;;;;;4408217;32;20178;-65
2021/08/13 10:49:18;;;;;;;4.72;2.22;;;27.10;79.00;;;;;;4408490;32;20518;-66
2021/08/13 10:51:45;;;;;;;5.65;2.55;;;27.10;77.20;;;;;;4408051;32;20158;-65
2021/08/13 10:54:14;;;;;;;3.53;1.60;;;27.00;73.80;;;;;;4408044;32;20162;-64
2021/08/13 10:56:43;;;;;;;5.37;2.35;;;26.60;76.00;;;;;;4409760;32;20140;-64
2021/08/13 10:59:10;;;;;;;7.40;2.40;;;26.30;78.20;;;;;;4408007;32;20151;-65
2021/08/13 11:01:45;;;;;;;4.30;1.83;;;26.10;77.80;;;;;;4408804;32;20175;-66
2021/08/13 11:04:14;;;;;;;4.45;1.87;;;26.00;79.10;;;;;;4407916;32;20198;-64
2021/08/13 11:06:46;;;;;;;2.62;1.90;;;26.00;75.80;;;;;;4409506;32;20148;-64
2021/08/13 11:09:14;;;;;;;6.70;2.10;;;26.10;78.00;;;;;;4409114;32;20603;-63
2021/08/13 11:12:03;;;;;;;7.47;2.00;;;25.90;75.90;;;;;;4407765;32;20211;-65
2021/08/13 11:14:32;;;;;;;5.25;2.08;;;26.00;74.70;;;;;;4330790;33;20228;-63
2021/08/13 11:16:59;;;;;;;5.95;2.10;;;26.00;74.20;;;;;;4330870;33;20165;-64
2021/08/13 11:19:28;;;;;;;5.22;2.10;;;25.70;75.80;;;;;;4330861;33;20605;-65
2021/08/13 11:21:58;;;;;;;5.22;2.42;;;25.40;76.60;;;;;;4332056;33;20161;-67
2021/08/13 11:24:26;;;;;;;5.05;2.35;;;25.30;78.80;;;;;;4331482;33;20236;-64
2021/08/13 11:27:13;;;;;;;5.68;2.33;;;25.30;77.80;;;;;;4357563;32;20880;-64
2021/08/13 11:29:45;;;;;;;5.80;2.20;;;25.20;78.40;;;;;;4422731;32;20147;-65
2021/08/13 11:32:27;;;;;;;6.20;2.53;;;25.00;79.20;;;;;;4422623;32;20189;-65
2021/08/13 11:34:58;;;;;;;7.15;2.28;;;24.90;80.40;;;;;;4422711;32;20206;-65
2021/08/13 11:38:02;;;;;;;6.22;2.33;;;24.90;80.70;;;;;;4424467;32;20208;-67
2021/08/13 11:40:48;;;;;;;6.65;2.87;;;24.90;81.40;;;;;;4423360;32;20143;-65
2021/08/13 11:43:16;;;;;;;5.70;2.17;;;25.00;81.80;;;;;;4422683;32;20196;-68
2021/08/13 11:45:44;;;;;;;7.28;3.00;;;25.00;81.70;;;;;;4421239;32;20162;-65
2021/08/13 11:48:12;;;;;;;5.32;2.72;;;25.00;82.70;;;;;;4422230;32;20144;-65
2021/08/13 11:50:41;;;;;;;5.97;2.28;;;24.90;83.70;;;;;;4422257;32;20696;-65
2021/08/13 11:53:08;;;;;;;7.35;2.15;;;24.80;83.20;;;;;;4424036;32;20215;-64
2021/08/13 11:55:37;;;;;;;6.85;2.65;;;24.80;83.70;;;;;;4424123;32;20205;-66
2021/08/13 11:58:05;;;;;;;5.60;2.58;;;25.20;83.70;;;;;;4423490;32;20159;-66
2021/08/13 12:00:33;;;;;;;7.78;2.50;;;25.20;82.80;;;;;;4422093;32;20189;-65
2021/08/13 12:03:01;;;;;;;9.25;2.10;;;25.40;82.60;;;;;;4422354;32;20155;-65
2021/08/13 12:05:30;;;;;;;4.90;2.55;;;25.30;82.50;;;;;;4422284;32;20163;-65
2021/08/13 12:08:02;;;;;;;7.35;2.80;;;25.30;82.00;;;;;;4422114;32;20170;-65
2021/08/13 12:10:30;;;;;;;4.93;2.12;;;25.20;83.00;;;;;;4422427;32;20170;-65
2021/08/13 12:12:58;;;;;;;11.15;2.47;;;25.10;83.50;;;;;;4422235;32;20142;-66
2021/08/13 12:15:30;;;;;;;10.25;2.90;;;24.70;81.80;;;;;;4420296;32;20171;-66
2021/08/13 12:17:58;;;;;;;8.68;2.97;;;24.40;82.40;;;;;;4406559;32;20171;-65
2021/08/13 12:20:25;;;;;;;7.62;3.55;;;24.20;82.70;;;;;;4406796;32;20187;-68
2021/08/13 12:23:03;;;;;;;6.45;2.80;;;24.30;84.00;;;;;;4406874;32;20167;-65
2021/08/13 12:25:35;;;;;;;6.82;2.65;;;24.50;83.20;;;;;;4406470;32;20212;-67
2021/08/13 12:28:03;;;;;;;8.10;2.28;;;24.60;83.60;;;;;;4406238;32;20168;-66
2021/08/13 12:30:30;;;;;;;8.73;2.75;;;24.60;83.10;;;;;;4406756;32;20174;-65
2021/08/13 12:32:59;;;;;;;7.47;2.85;;;24.40;83.40;;;;;;4407631;32;20178;-65
2021/08/13 12:35:35;;;;;;;8.00;3.58;;;24.50;84.50;;;;;;4407083;32;20148;-67
2021/08/13 12:38:03;;;;;;;9.20;2.50;;;24.50;83.70;;;;;;4408409;32;20538;-66
2021/08/13 12:40:39;;;;;;;8.45;2.42;;;24.60;84.90;;;;;;4407401;32;20471;-64
2021/08/13 12:43:06;;;;;;;5.68;2.50;;;24.70;85.10;;;;;;4408354;32;20167;-65
2021/08/13 12:45:33;;;;;;;7.80;3.22;;;25.00;84.80;;;;;;4406362;32;20174;-65